sensor_id;sensor_type;location;lat;lon;timestamp;pressure;altitude;pressure_sealevel;temperature;humidity
19845;BME280;10083;51.038;7.012;2023-11-21T00:00:15;103078.25;;;10.73;100.00
19845;BME280;10083;51.038;7.012;2023-11-21T00:02:44;103071.88;;;10.64;100.00
19845;BME280;10083;51.038;7.012;2023-11-21T00:05:12;103068.22;;;10.59;100.00
19845;BME280;10083;51.038;7.012;2023-11-21T00:07:43;103076.25;;;10.59;100.00
19845;BME280;10083;51.038;7.012;2023-11-21T00:10:12;103087.06;;;10.66;100.00
19845;BME280;10083;51.038;7.012;2023-11-21T00:12:41;103104.97;;;10.66;100.00
19845;BME280;10083;51.038;7.012;2023-11-21T00:15:10;103106.66;;;10.62;100.00
19845;BME280;10083;51.038;7.012;2023-11-21T00:17:37;103103.16;;;10.66;100.00
19845;BME280;10083;51.038;7.012;2023-11-21T00:20:08;103092.38;;;10.60;100.00
19845;BME280;10083;51.038;7.012;2023-11-21T00:22:38;103092.28;;;10.56;100.00
19845;BME280;10083;51.038;7.012;2023-11-21T00:25:08;103075.97;;;10.40;100.00
19845;BME280;10083;51.038;7.012;2023-11-21T00:27:35;103058.66;;;10.16;100.00
19845;BME280;10083;51.038;7.012;2023-11-21T00:30:05;103040.75;;;10.13;100.00
19845;BME280;10083;51.038;7.012;2023-11-21T00:32:35;103029.81;;;10.01;100.00
19845;BME280;10083;51.038;7.012;2023-11-21T00:35:04;103011.59;;;9.76;100.00
19845;BME280;10083;51.038;7.012;2023-11-21T00:37:32;103006.09;;;9.67;100.00
19845;BME280;10083;51.038;7.012;2023-11-21T00:39:59;103011.34;;;9.61;100.00
19845;BME280;10083;51.038;7.012;2023-11-21T00:42:30;102997.00;;;9.56;100.00
19845;BME280;10083;51.038;7.012;2023-11-21T00:44:58;102999.47;;;9.45;100.00
19845;BME280;10083;51.038;7.012;2023-11-21T00:47:26;103002.97;;;9.41;100.00
19845;BME280;10083;51.038;7.012;2023-11-21T00:49:53;103005.63;;;9.39;100.00
19845;BME280;10083;51.038;7.012;2023-11-21T00:52:22;103008.63;;;9.08;100.00
19845;BME280;10083;51.038;7.012;2023-11-21T00:54:51;102985.50;;;9.12;100.00
19845;BME280;10083;51.038;7.012;2023-11-21T00:57:19;102994.59;;;9.21;100.00
19845;BME280;10083;51.038;7.012;2023-11-21T00:59:48;103014.06;;;9.14;100.00
19845;BME280;10083;51.038;7.012;2023-11-21T01:02:15;103028.06;;;9.01;100.00
19845;BME280;10083;51.038;7.012;2023-11-21T01:04:43;103026.34;;;9.03;100.00
19845;BME280;10083;51.038;7.012;2023-11-21T01:07:11;103037.06;;;9.06;100.00
19845;BME280;10083;51.038;7.012;2023-11-21T01:09:39;103056.63;;;9.05;100.00
19845;BME280;10083;51.038;7.012;2023-11-21T01:12:07;103063.75;;;9.03;100.00
19845;BME280;10083;51.038;7.012;2023-11-21T01:14:34;103059.31;;;9.03;100.00
19845;BME280;10083;51.038;7.012;2023-11-21T01:17:04;103069.47;;;9.21;100.00
19845;BME280;10083;51.038;7.012;2023-11-21T01:19:33;103080.28;;;9.29;100.00
19845;BME280;10083;51.038;7.012;2023-11-21T01:22:00;103084.81;;;9.33;100.00
19845;BME280;10083;51.038;7.012;2023-11-21T01:24:28;103096.69;;;9.48;100.00
19845;BME280;10083;51.038;7.012;2023-11-21T01:26:55;103116.59;;;9.63;100.00
19845;BME280;10083;51.038;7.012;2023-11-21T01:29:23;103125.47;;;9.62;100.00
19845;BME280;10083;51.038;7.012;2023-11-21T01:31:50;103121.97;;;9.64;100.00
19845;BME280;10083;51.038;7.012;2023-11-21T01:34:21;103110.50;;;9.70;100.00
19845;BME280;10083;51.038;7.012;2023-11-21T01:36:49;103094.56;;;9.77;100.00
19845;BME280;10083;51.038;7.012;2023-11-21T01:39:17;103095.56;;;9.84;100.00
19845;BME280;10083;51.038;7.012;2023-11-21T01:41:49;103095.56;;;9.84;100.00
19845;BME280;10083;51.038;7.012;2023-11-21T01:44:17;103089.38;;;9.86;100.00
19845;BME280;10083;51.038;7.012;2023-11-21T01:46:45;103081.34;;;9.88;100.00
19845;BME280;10083;51.038;7.012;2023-11-21T01:49:13;103074.81;;;9.71;100.00
19845;BME280;10083;51.038;7.012;2023-11-21T01:51:45;103065.03;;;9.70;100.00
19845;BME280;10083;51.038;7.012;2023-11-21T01:54:14;103075.84;;;9.77;100.00
19845;BME280;10083;51.038;7.012;2023-11-21T01:56:43;103089.31;;;9.83;100.00
19845;BME280;10083;51.038;7.012;2023-11-21T01:59:11;103101.88;;;9.86;100.00
19845;BME280;10083;51.038;7.012;2023-11-21T02:01:41;103125.09;;;9.88;100.00
19845;BME280;10083;51.038;7.012;2023-11-21T02:04:09;103126.03;;;9.92;100.00
19845;BME280;10083;51.038;7.012;2023-11-21T02:06:37;103139.56;;;10.01;100.00
19845;BME280;10083;51.038;7.012;2023-11-21T02:09:06;103148.63;;;10.08;100.00
19845;BME280;10083;51.038;7.012;2023-11-21T02:11:36;103139.56;;;10.01;100.00
19845;BME280;10083;51.038;7.012;2023-11-21T02:14:06;103144.19;;;10.08;100.00
19845;BME280;10083;51.038;7.012;2023-11-21T02:16:35;103154.97;;;10.13;100.00
19845;BME280;10083;51.038;7.012;2023-11-21T02:19:02;103156.94;;;10.21;100.00
19845;BME280;10083;51.038;7.012;2023-11-21T02:21:31;103161.19;;;10.12;100.00
19845;BME280;10083;51.038;7.012;2023-11-21T02:24:00;103172.03;;;10.16;100.00
19845;BME280;10083;51.038;7.012;2023-11-21T02:26:28;103165.78;;;10.17;100.00
19845;BME280;10083;51.038;7.012;2023-11-21T02:28:56;103180.13;;;10.21;100.00
19845;BME280;10083;51.038;7.012;2023-11-21T02:31:25;103180.97;;;10.17;100.00
19845;BME280;10083;51.038;7.012;2023-11-21T02:33:55;103191.72;;;10.20;100.00
19845;BME280;10083;51.038;7.012;2023-11-21T02:36:22;103196.28;;;10.25;100.00
19845;BME280;10083;51.038;7.012;2023-11-21T02:38:49;103213.13;;;10.20;100.00
19845;BME280;10083;51.038;7.012;2023-11-21T02:41:18;103225.03;;;10.35;100.00
19845;BME280;10083;51.038;7.012;2023-11-21T02:43:45;103229.59;;;10.42;100.00
19845;BME280;10083;51.038;7.012;2023-11-21T02:46:13;103224.22;;;10.41;100.00
19845;BME280;10083;51.038;7.012;2023-11-21T02:48:40;103218.03;;;10.43;100.00
19845;BME280;10083;51.038;7.012;2023-11-21T02:51:07;103221.63;;;10.46;100.00
19845;BME280;10083;51.038;7.012;2023-11-21T02:53:35;103221.66;;;10.49;100.00
19845;BME280;10083;51.038;7.012;2023-11-21T02:56:05;103219.06;;;10.53;100.00
19845;BME280;10083;51.038;7.012;2023-11-21T02:58:34;103219.97;;;10.54;100.00
19845;BME280;10083;51.038;7.012;2023-11-21T03:01:02;103206.56;;;10.54;100.00
19845;BME280;10083;51.038;7.012;2023-11-21T03:03:33;103185.94;;;10.48;100.00
19845;BME280;10083;51.038;7.012;2023-11-21T03:06:00;103171.66;;;10.49;100.00
19845;BME280;10083;51.038;7.012;2023-11-21T03:08:28;103177.16;;;10.58;100.00
19845;BME280;10083;51.038;7.012;2023-11-21T03:10:56;103163.63;;;10.49;100.00
19845;BME280;10083;51.038;7.012;2023-11-21T03:13:24;103174.19;;;10.40;100.00
19845;BME280;10083;51.038;7.012;2023-11-21T03:15:53;103182.38;;;10.48;100.00
19845;BME280;10083;51.038;7.012;2023-11-21T03:18:21;103189.47;;;10.46;100.00
19845;BME280;10083;51.038;7.012;2023-11-21T03:20:49;103192.19;;;10.49;100.00
19845;BME280;10083;51.038;7.012;2023-11-21T03:23:17;103198.41;;;10.46;100.00
19845;BME280;10083;51.038;7.012;2023-11-21T03:25:44;103204.66;;;10.47;100.00
19845;BME280;10083;51.038;7.012;2023-11-21T03:28:12;103202.81;;;10.42;100.00
19845;BME280;10083;51.038;7.012;2023-11-21T03:30:39;103204.56;;;10.40;100.00
19845;BME280;10083;51.038;7.012;2023-11-21T03:33:08;103210.94;;;10.49;100.00
19845;BME280;10083;51.038;7.012;2023-11-21T03:35:36;103202.91;;;10.47;100.00
19845;BME280;10083;51.038;7.012;2023-11-21T03:38:03;103212.81;;;10.54;100.00
19845;BME280;10083;51.038;7.012;2023-11-21T03:40:31;103213.63;;;10.49;100.00
19845;BME280;10083;51.038;7.012;2023-11-21T03:42:59;103218.19;;;10.54;100.00
19845;BME280;10083;51.038;7.012;2023-11-21T03:45:26;103223.50;;;10.51;100.00
19845;BME280;10083;51.038;7.012;2023-11-21T03:47:53;103245.84;;;10.52;100.00
19845;BME280;10083;51.038;7.012;2023-11-21T03:50:23;103254.78;;;10.52;100.00
19845;BME280;10083;51.038;7.012;2023-11-21T03:52:50;103250.31;;;10.53;100.00
19845;BME280;10083;51.038;7.012;2023-11-21T03:55:18;103246.75;;;10.52;100.00
19845;BME280;10083;51.038;7.012;2023-11-21T03:57:45;103249.28;;;10.44;100.00
19845;BME280;10083;51.038;7.012;2023-11-21T04:00:13;103258.22;;;10.43;100.00
19845;BME280;10083;51.038;7.012;2023-11-21T04:02:41;103245.84;;;10.52;100.00
19845;BME280;10083;51.038;7.012;2023-11-21T04:05:11;103254.78;;;10.54;100.00
19845;BME280;10083;51.038;7.012;2023-11-21T04:07:41;103245.06;;;10.59;100.00
19845;BME280;10083;51.038;7.012;2023-11-21T04:10:09;103245.06;;;10.59;100.00
19845;BME280;10083;51.038;7.012;2023-11-21T04:12:38;103224.41;;;10.53;100.00
19845;BME280;10083;51.038;7.012;2023-11-21T04:15:07;103205.66;;;10.52;100.00
19845;BME280;10083;51.038;7.012;2023-11-21T04:17:36;103212.81;;;10.53;100.00
19845;BME280;10083;51.038;7.012;2023-11-21T04:20:04;103214.63;;;10.55;100.00
19845;BME280;10083;51.038;7.012;2023-11-21T04:22:36;103221.75;;;10.55;100.00
19845;BME280;10083;51.038;7.012;2023-11-21T04:25:07;103228.91;;;10.53;100.00
19845;BME280;10083;51.038;7.012;2023-11-21T04:27:35;103218.03;;;10.43;100.00
19845;BME280;10083;51.038;7.012;2023-11-21T04:30:03;103201.72;;;10.31;100.00
19845;BME280;10083;51.038;7.012;2023-11-21T04:32:31;103200.97;;;10.40;100.00
19845;BME280;10083;51.038;7.012;2023-11-21T04:34:58;103196.56;;;10.42;100.00
19845;BME280;10083;51.038;7.012;2023-11-21T04:37:26;103193.00;;;10.44;100.00
19845;BME280;10083;51.038;7.012;2023-11-21T04:39:53;103189.28;;;10.33;100.00
19845;BME280;10083;51.038;7.012;2023-11-21T04:42:22;103193.72;;;10.33;100.00
19845;BME280;10083;51.038;7.012;2023-11-21T04:44:50;103193.59;;;10.27;100.00
19845;BME280;10083;51.038;7.012;2023-11-21T04:47:18;103192.00;;;10.36;100.00
19845;BME280;10083;51.038;7.012;2023-11-21T04:49:46;103195.63;;;10.38;100.00
19845;BME280;10083;51.038;7.012;2023-11-21T04:52:14;103205.34;;;10.33;100.00
19845;BME280;10083;51.038;7.012;2023-11-21T04:54:41;103227.78;;;10.41;100.00
19845;BME280;10083;51.038;7.012;2023-11-21T04:57:09;103236.69;;;10.40;100.00
19845;BME280;10083;51.038;7.012;2023-11-21T04:59:39;103231.25;;;10.36;100.00
19845;BME280;10083;51.038;7.012;2023-11-21T05:02:06;103230.50;;;10.44;100.00
19845;BME280;10083;51.038;7.012;2023-11-21T05:04:34;103239.38;;;10.40;100.00
19845;BME280;10083;51.038;7.012;2023-11-21T05:07:01;103243.94;;;10.46;100.00
19845;BME280;10083;51.038;7.012;2023-11-21T05:09:29;103253.81;;;10.49;100.00
19845;BME280;10083;51.038;7.012;2023-11-21T05:11:58;103255.50;;;10.42;100.00
19845;BME280;10083;51.038;7.012;2023-11-21T05:14:26;103259.03;;;10.39;100.00
19845;BME280;10083;51.038;7.012;2023-11-21T05:16:55;103263.53;;;10.42;100.00
19845;BME280;10083;51.038;7.012;2023-11-21T05:19:22;103244.44;;;10.22;100.00
19845;BME280;10083;51.038;7.012;2023-11-21T05:21:49;103245.50;;;10.33;100.00
19845;BME280;10083;51.038;7.012;2023-11-21T05:24:17;103248.31;;;10.39;100.00
19845;BME280;10083;51.038;7.012;2023-11-21T05:26:44;103265.22;;;10.35;100.00
19845;BME280;10083;51.038;7.012;2023-11-21T05:29:11;103278.00;;;10.53;100.00
19845;BME280;10083;51.038;7.012;2023-11-21T05:31:39;103288.75;;;10.55;100.00
19845;BME280;10083;51.038;7.012;2023-11-21T05:34:08;103294.09;;;10.55;100.00
19845;BME280;10083;51.038;7.012;2023-11-21T05:36:36;103294.94;;;10.51;100.00
19845;BME280;10083;51.038;7.012;2023-11-21T05:39:04;103290.44;;;10.50;100.00
19845;BME280;10083;51.038;7.012;2023-11-21T05:41:31;103291.25;;;10.46;100.00
19845;BME280;10083;51.038;7.012;2023-11-21T05:43:58;103307.50;;;10.55;100.00
19845;BME280;10083;51.038;7.012;2023-11-21T05:46:27;103323.75;;;10.64;100.00
19845;BME280;10083;51.038;7.012;2023-11-21T05:48:55;103321.09;;;10.65;100.00
19845;BME280;10083;51.038;7.012;2023-11-21T05:51:24;103319.38;;;10.69;100.00
19845;BME280;10083;51.038;7.012;2023-11-21T05:53:51;103317.53;;;10.66;100.00
19845;BME280;10083;51.038;7.012;2023-11-21T05:56:19;103315.75;;;10.65;100.00
19845;BME280;10083;51.038;7.012;2023-11-21T05:58:46;103309.56;;;10.71;100.00
19845;BME280;10083;51.038;7.012;2023-11-21T06:01:13;103315.91;;;10.74;100.00
19845;BME280;10083;51.038;7.012;2023-11-21T06:03:41;103320.28;;;10.71;100.00
19845;BME280;10083;51.038;7.012;2023-11-21T06:06:09;103319.41;;;10.72;100.00
19845;BME280;10083;51.038;7.012;2023-11-21T06:08:38;103320.38;;;10.75;100.00
19845;BME280;10083;51.038;7.012;2023-11-21T06:11:06;103319.16;;;10.58;100.00
19845;BME280;10083;51.038;7.012;2023-11-21T06:13:33;103349.69;;;10.65;100.00
19845;BME280;10083;51.038;7.012;2023-11-21T06:16:00;103346.16;;;10.69;100.00
19845;BME280;10083;51.038;7.012;2023-11-21T06:18:28;103346.13;;;10.66;100.00
19845;BME280;10083;51.038;7.012;2023-11-21T06:20:55;103346.13;;;10.66;100.00
19845;BME280;10083;51.038;7.012;2023-11-21T06:23:22;103356.03;;;10.70;100.00
19845;BME280;10083;51.038;7.012;2023-11-21T06:25:51;103363.94;;;10.64;100.00
19845;BME280;10083;51.038;7.012;2023-11-21T06:28:19;103367.53;;;10.64;100.00
19845;BME280;10083;51.038;7.012;2023-11-21T06:30:46;103366.44;;;10.55;100.00
19845;BME280;10083;51.038;7.012;2023-11-21T06:33:14;103371.19;;;10.69;100.00
19845;BME280;10083;51.038;7.012;2023-11-21T06:35:42;103379.19;;;10.68;100.00
19845;BME280;10083;51.038;7.012;2023-11-21T06:38:09;103374.78;;;10.71;100.00
19845;BME280;10083;51.038;7.012;2023-11-21T06:40:36;103373.06;;;10.73;100.00
19845;BME280;10083;51.038;7.012;2023-11-21T06:43:08;103371.19;;;10.69;100.00
19845;BME280;10083;51.038;7.012;2023-11-21T06:45:38;103367.56;;;10.67;100.00
19845;BME280;10083;51.038;7.012;2023-11-21T06:48:06;103358.72;;;10.70;100.00
19845;BME280;10083;51.038;7.012;2023-11-21T06:50:33;103361.44;;;10.73;100.00
19845;BME280;10083;51.038;7.012;2023-11-21T06:53:01;103359.50;;;10.64;100.00
19845;BME280;10083;51.038;7.012;2023-11-21T06:55:32;103349.75;;;10.71;100.00
19845;BME280;10083;51.038;7.012;2023-11-21T06:58:00;103347.06;;;10.69;100.00
19845;BME280;10083;51.038;7.012;2023-11-21T07:00:29;103347.91;;;10.67;100.00
19845;BME280;10083;51.038;7.012;2023-11-21T07:02:57;103360.19;;;10.54;100.00
19845;BME280;10083;51.038;7.012;2023-11-21T07:05:25;103358.53;;;10.62;100.00
19845;BME280;10083;51.038;7.012;2023-11-21T07:07:54;103367.56;;;10.66;100.00
19845;BME280;10083;51.038;7.012;2023-11-21T07:10:22;103379.19;;;10.68;100.00
19845;BME280;10083;51.038;7.012;2023-11-21T07:12:50;103387.25;;;10.68;100.00
19845;BME280;10083;51.038;7.012;2023-11-21T07:15:19;103386.41;;;10.72;100.00
19845;BME280;10083;51.038;7.012;2023-11-21T07:17:48;103385.50;;;10.71;100.00
19845;BME280;10083;51.038;7.012;2023-11-21T07:20:16;103385.72;;;10.82;100.00
19845;BME280;10083;51.038;7.012;2023-11-21T07:22:44;103381.22;;;10.81;100.00
19845;BME280;10083;51.038;7.012;2023-11-21T07:25:12;103374.09;;;10.81;100.00
19845;BME280;10083;51.038;7.012;2023-11-21T07:27:43;103383.00;;;10.79;100.00
19845;BME280;10083;51.038;7.012;2023-11-21T07:30:14;103377.56;;;10.76;100.00
19845;BME280;10083;51.038;7.012;2023-11-21T07:32:42;103375.88;;;10.81;100.00
19845;BME280;10083;51.038;7.012;2023-11-21T07:35:12;103392.91;;;10.84;100.00
19845;BME280;10083;51.038;7.012;2023-11-21T07:37:39;103394.41;;;10.70;100.00
19845;BME280;10083;51.038;7.012;2023-11-21T07:40:10;103398.38;;;10.91;100.00
19845;BME280;10083;51.038;7.012;2023-11-21T07:42:39;103387.66;;;10.92;100.00
19845;BME280;10083;51.038;7.012;2023-11-21T07:45:09;103369.97;;;11.02;100.00
19845;BME280;10083;51.038;7.012;2023-11-21T07:47:37;103367.31;;;11.03;100.00
19845;BME280;10083;51.038;7.012;2023-11-21T07:50:08;103347.75;;;11.10;100.00
19845;BME280;10083;51.038;7.012;2023-11-21T07:52:40;103325.06;;;10.88;100.00
19845;BME280;10083;51.038;7.012;2023-11-21T07:55:09;103299.50;;;11.09;100.00
19845;BME280;10083;51.038;7.012;2023-11-21T07:57:37;103278.09;;;11.13;100.00
19845;BME280;10083;51.038;7.012;2023-11-21T08:00:06;103248.75;;;11.24;100.00
19845;BME280;10083;51.038;7.012;2023-11-21T08:02:43;103222.81;;;11.24;100.00
19845;BME280;10083;51.038;7.012;2023-11-21T08:05:11;103196.03;;;11.27;100.00
19845;BME280;10083;51.038;7.012;2023-11-21T08:07:41;103162.94;;;11.25;100.00
19845;BME280;10083;51.038;7.012;2023-11-21T08:10:09;103132.63;;;11.31;100.00
19845;BME280;10083;51.038;7.012;2023-11-21T08:12:38;103098.66;;;11.34;100.00
19845;BME280;10083;51.038;7.012;2023-11-21T08:15:06;103066.53;;;11.41;100.00
19845;BME280;10083;51.038;7.012;2023-11-21T08:17:35;103054.88;;;11.37;100.00
19845;BME280;10083;51.038;7.012;2023-11-21T08:20:02;103035.25;;;11.40;100.00
19845;BME280;10083;51.038;7.012;2023-11-21T08:22:30;103020.03;;;11.39;100.00
19845;BME280;10083;51.038;7.012;2023-11-21T08:24:59;103009.38;;;11.48;100.00
19845;BME280;10083;51.038;7.012;2023-11-21T08:27:28;103009.19;;;11.29;100.00
19845;BME280;10083;51.038;7.012;2023-11-21T08:29:55;102997.63;;;11.37;100.00
19845;BME280;10083;51.038;7.012;2023-11-21T08:32:23;102990.38;;;11.25;100.00
19845;BME280;10083;51.038;7.012;2023-11-21T08:34:50;102977.88;;;11.28;100.00
19845;BME280;10083;51.038;7.012;2023-11-21T08:37:18;102977.84;;;11.27;100.00
19845;BME280;10083;51.038;7.012;2023-11-21T08:39:47;102997.56;;;11.29;100.00
19845;BME280;10083;51.038;7.012;2023-11-21T08:42:16;102999.34;;;11.28;100.00
19845;BME280;10083;51.038;7.012;2023-11-21T08:44:44;102999.38;;;11.31;100.00
19845;BME280;10083;51.038;7.012;2023-11-21T08:47:11;102998.50;;;11.31;100.00
19845;BME280;10083;51.038;7.012;2023-11-21T08:49:41;102978.88;;;11.38;100.00
19845;BME280;10083;51.038;7.012;2023-11-21T08:52:09;102992.44;;;11.58;100.00
19845;BME280;10083;51.038;7.012;2023-11-21T08:54:37;102971.00;;;11.59;100.00
19845;BME280;10083;51.038;7.012;2023-11-21T08:57:05;102957.59;;;11.62;100.00
19845;BME280;10083;51.038;7.012;2023-11-21T08:59:34;102946.88;;;11.64;100.00
19845;BME280;10083;51.038;7.012;2023-11-21T09:02:02;102924.66;;;11.74;100.00
19845;BME280;10083;51.038;7.012;2023-11-21T09:04:30;102919.97;;;11.52;100.00
19845;BME280;10083;51.038;7.012;2023-11-21T09:06:57;102905.75;;;11.68;100.00
19845;BME280;10083;51.038;7.012;2023-11-21T09:09:26;102905.88;;;11.78;100.00
19845;BME280;10083;51.038;7.012;2023-11-21T09:11:53;102906.59;;;11.62;100.00
19845;BME280;10083;51.038;7.012;2023-11-21T09:14:21;102900.47;;;11.72;100.00
19845;BME280;10083;51.038;7.012;2023-11-21T09:16:53;102888.72;;;11.60;100.00
19845;BME280;10083;51.038;7.012;2023-11-21T09:19:22;102887.09;;;11.78;100.00
19845;BME280;10083;51.038;7.012;2023-11-21T09:21:59;102906.69;;;11.70;100.00
19845;BME280;10083;51.038;7.012;2023-11-21T09:24:27;102894.81;;;11.41;100.00
19845;BME280;10083;51.038;7.012;2023-11-21T09:59:38;102843.13;;;11.70;100.00
19845;BME280;10083;51.038;7.012;2023-11-21T10:02:07;102847.75;;;11.85;100.00
19845;BME280;10083;51.038;7.012;2023-11-21T10:04:38;102853.00;;;11.68;100.00
19845;BME280;10083;51.038;7.012;2023-11-21T10:07:10;102838.81;;;11.86;100.00
19845;BME280;10083;51.038;7.012;2023-11-21T11:37:00;102740.50;;;12.64;100.00
19845;BME280;10083;51.038;7.012;2023-11-21T11:39:30;102744.09;;;12.66;100.00
19845;BME280;10083;51.038;7.012;2023-11-21T11:42:02;102717.19;;;12.77;100.00
19845;BME280;10083;51.038;7.012;2023-11-21T11:44:52;102720.75;;;12.71;100.00
19845;BME280;10083;51.038;7.012;2023-11-21T11:47:23;102700.13;;;12.93;100.00
19845;BME280;10083;51.038;7.012;2023-11-21T11:50:02;102699.22;;;12.89;100.00
19845;BME280;10083;51.038;7.012;2023-11-21T11:52:42;102708.19;;;12.94;100.00
19845;BME280;10083;51.038;7.012;2023-11-21T11:55:13;102727.06;;;12.65;100.00
19845;BME280;10083;51.038;7.012;2023-11-21T11:57:44;102707.31;;;12.82;100.00
19845;BME280;10083;51.038;7.012;2023-11-21T12:00:17;102703.72;;;12.84;100.00
19845;BME280;10083;51.038;7.012;2023-11-21T12:02:52;102711.84;;;12.66;100.00
19845;BME280;10083;51.038;7.012;2023-11-21T12:05:22;102705.53;;;12.55;100.00
19845;BME280;10083;51.038;7.012;2023-11-21T12:08:01;102706.44;;;12.60;100.00
19845;BME280;10083;51.038;7.012;2023-11-21T12:10:41;102710.91;;;12.68;100.00
19845;BME280;10083;51.038;7.012;2023-11-21T12:13:23;102727.03;;;12.49;100.00
19845;BME280;10083;51.038;7.012;2023-11-21T12:15:56;102727.94;;;12.48;100.00
19845;BME280;10083;51.038;7.012;2023-11-21T12:18:24;102731.53;;;12.74;100.00
19845;BME280;10083;51.038;7.012;2023-11-21T12:21:03;102753.94;;;12.65;100.00
19845;BME280;10083;51.038;7.012;2023-11-21T12:23:57;102752.13;;;12.74;100.00
19845;BME280;10083;51.038;7.012;2023-11-21T12:26:30;102773.63;;;12.54;100.00
19845;BME280;10083;51.038;7.012;2023-11-21T12:28:57;102782.59;;;12.48;100.00
19845;BME280;10083;51.038;7.012;2023-11-21T12:31:25;102808.56;;;12.48;100.00
19845;BME280;10083;51.038;7.012;2023-11-21T12:33:55;102800.50;;;12.49;100.00
19845;BME280;10083;51.038;7.012;2023-11-21T12:36:23;102809.47;;;12.48;100.00
19845;BME280;10083;51.038;7.012;2023-11-21T12:38:58;102823.78;;;12.47;100.00
19845;BME280;10083;51.038;7.012;2023-11-21T12:41:26;102836.34;;;12.62;100.00
19845;BME280;10083;51.038;7.012;2023-11-21T12:43:55;102831.88;;;12.55;100.00
19845;BME280;10083;51.038;7.012;2023-11-21T12:46:26;102819.31;;;12.52;100.00
19845;BME280;10083;51.038;7.012;2023-11-21T12:48:58;102822.91;;;12.48;100.00
19845;BME280;10083;51.038;7.012;2023-11-21T12:51:25;102826.47;;;12.55;100.00
19845;BME280;10083;51.038;7.012;2023-11-21T12:53:55;102811.25;;;12.58;100.00
19845;BME280;10083;51.038;7.012;2023-11-21T12:56:24;102811.25;;;12.49;100.00
19845;BME280;10083;51.038;7.012;2023-11-21T12:58:54;102790.66;;;12.56;100.00
19845;BME280;10083;51.038;7.012;2023-11-21T13:01:25;102772.75;;;12.59;100.00
19845;BME280;10083;51.038;7.012;2023-11-21T13:03:56;102764.66;;;12.41;100.00
19845;BME280;10083;51.038;7.012;2023-11-21T13:06:24;102775.41;;;12.46;100.00
19845;BME280;10083;51.038;7.012;2023-11-21T13:08:54;102761.97;;;12.67;100.00
19845;BME280;10083;51.038;7.012;2023-11-21T13:11:23;102730.59;;;12.89;100.00
19845;BME280;10083;51.038;7.012;2023-11-21T13:13:52;102760.19;;;12.64;100.00
19845;BME280;10083;51.038;7.012;2023-11-21T13:16:22;102722.53;;;12.99;100.00
19845;BME280;10083;51.038;7.012;2023-11-21T13:19:01;102727.03;;;13.00;100.00
19845;BME280;10083;51.038;7.012;2023-11-21T13:21:34;102718.06;;;12.89;100.00
19845;BME280;10083;51.038;7.012;2023-11-21T13:24:14;102728.81;;;12.89;100.00
19845;BME280;10083;51.038;7.012;2023-11-21T13:26:47;102718.97;;;12.82;100.00
19845;BME280;10083;51.038;7.012;2023-11-21T13:29:15;102701.94;;;12.82;100.00
19845;BME280;10083;51.038;7.012;2023-11-21T13:31:50;102701.94;;;12.86;100.00
19845;BME280;10083;51.038;7.012;2023-11-21T13:34:32;102716.28;;;12.76;100.00
19845;BME280;10083;51.038;7.012;2023-11-21T13:37:13;102712.69;;;12.85;100.00
19845;BME280;10083;51.038;7.012;2023-11-21T13:39:45;102715.41;;;12.88;100.00
19845;BME280;10083;51.038;7.012;2023-11-21T13:42:18;102736.00;;;12.75;100.00
19845;BME280;10083;51.038;7.012;2023-11-21T13:44:56;102726.13;;;12.86;100.00
19845;BME280;10083;51.038;7.012;2023-11-21T13:47:24;102719.84;;;12.84;100.00
19845;BME280;10083;51.038;7.012;2023-11-21T13:49:55;102748.56;;;12.61;100.00
19845;BME280;10083;51.038;7.012;2023-11-21T13:52:41;102742.28;;;12.56;100.00
19845;BME280;10083;51.038;7.012;2023-11-21T13:55:18;102734.19;;;12.71;100.00
19845;BME280;10083;51.038;7.012;2023-11-21T13:57:51;102722.56;;;12.69;100.00
19845;BME280;10083;51.038;7.012;2023-11-21T14:00:19;102724.34;;;12.79;100.00
19845;BME280;10083;51.038;7.012;2023-11-21T14:03:04;102733.31;;;12.78;100.00
19845;BME280;10083;51.038;7.012;2023-11-21T14:05:42;102715.41;;;12.79;100.00
19845;BME280;10083;51.038;7.012;2023-11-21T14:08:13;102729.72;;;12.91;100.00
19845;BME280;10083;51.038;7.012;2023-11-21T14:10:44;102720.78;;;12.83;100.00
19845;BME280;10083;51.038;7.012;2023-11-21T14:13:16;102713.59;;;12.85;100.00
19845;BME280;10083;51.038;7.012;2023-11-21T14:15:43;102718.97;;;12.82;100.00
19845;BME280;10083;51.038;7.012;2023-11-21T14:18:16;102732.41;;;12.72;100.00
19845;BME280;10083;51.038;7.012;2023-11-21T14:20:56;102734.22;;;12.68;100.00
19845;BME280;10083;51.038;7.012;2023-11-21T14:23:24;102729.75;;;12.52;100.00
19845;BME280;10083;51.038;7.012;2023-11-21T14:25:53;102738.72;;;12.61;100.00
19845;BME280;10083;51.038;7.012;2023-11-21T14:28:22;102742.28;;;12.65;100.00
19845;BME280;10083;51.038;7.012;2023-11-21T14:30:49;102748.53;;;12.55;100.00
19845;BME280;10083;51.038;7.012;2023-11-21T14:33:22;102747.63;;;12.66;100.00
19845;BME280;10083;51.038;7.012;2023-11-21T14:35:50;102749.44;;;12.60;100.00
19845;BME280;10083;51.038;7.012;2023-11-21T14:38:17;102759.28;;;12.49;100.00
19845;BME280;10083;51.038;7.012;2023-11-21T14:40:45;102777.19;;;12.50;100.00
19845;BME280;10083;51.038;7.012;2023-11-21T14:43:15;102782.59;;;12.47;100.00
19845;BME280;10083;51.038;7.012;2023-11-21T14:45:44;102798.69;;;12.35;100.00
19845;BME280;10083;51.038;7.012;2023-11-21T14:48:12;102830.00;;;12.17;100.00
19845;BME280;10083;51.038;7.012;2023-11-21T14:50:52;102864.94;;;12.36;100.00